createdAt,value
2019-03-15T00:01:48.701Z,5.50
2019-03-15T00:04:18.997Z,5.50
2019-03-15T00:06:50.309Z,5.50
2019-03-15T00:09:20.051Z,5.50
2019-03-15T00:11:51.070Z,5.50
2019-03-15T00:14:21.939Z,5.50
2019-03-15T00:16:52.398Z,5.50
2019-03-15T00:19:22.461Z,5.50
2019-03-15T00:21:52.301Z,5.60
2019-03-15T00:24:22.806Z,5.60
2019-03-15T00:26:52.811Z,5.60
2019-03-15T00:29:22.623Z,5.60
2019-03-15T00:31:53.006Z,5.60
2019-03-15T00:34:23.654Z,5.60
2019-03-15T00:36:53.437Z,5.60
2019-03-15T00:39:23.635Z,5.60
2019-03-15T00:41:54.065Z,5.60
2019-03-15T00:44:25.226Z,5.60
2019-03-15T00:46:54.959Z,5.60
2019-03-15T00:49:24.962Z,5.60
2019-03-15T00:51:54.919Z,5.70
2019-03-15T00:54:24.584Z,5.70
2019-03-15T00:56:54.365Z,5.70
2019-03-15T00:59:24.222Z,5.70
2019-03-15T01:01:53.999Z,5.70
2019-03-15T01:04:23.720Z,5.70
2019-03-15T01:06:53.537Z,5.80
2019-03-15T01:09:23.467Z,5.70
2019-03-15T01:11:54.115Z,5.70
2019-03-15T01:14:24.506Z,5.80
2019-03-15T01:16:55.139Z,5.70
2019-03-15T01:19:25.159Z,5.80
2019-03-15T01:21:55.519Z,5.80
2019-03-15T01:24:25.899Z,5.80
2019-03-15T01:26:56.634Z,5.80
2019-03-15T01:29:27.772Z,5.70
2019-03-15T01:31:57.821Z,5.70
2019-03-15T01:34:28.314Z,5.70
2019-03-15T01:36:58.950Z,5.70
2019-03-15T01:39:29.463Z,5.70
2019-03-15T01:42:03.379Z,5.80
2019-03-15T01:44:33.642Z,5.80
2019-03-15T01:47:03.746Z,5.80
2019-03-15T01:49:34.050Z,5.80
2019-03-15T01:52:05.807Z,5.80
2019-03-15T01:54:38.948Z,5.80
2019-03-15T01:57:10.914Z,5.80
2019-03-15T01:59:41.706Z,5.80
2019-03-15T02:02:12.543Z,5.80
2019-03-15T02:04:42.966Z,5.80
2019-03-15T02:07:13.411Z,5.80
2019-03-15T02:09:44.596Z,5.80
2019-03-15T02:12:14.825Z,5.80
2019-03-15T02:14:45.668Z,5.80
2019-03-15T02:17:16.397Z,5.90
2019-03-15T02:19:47.158Z,5.80
2019-03-15T02:22:18.127Z,5.80
2019-03-15T02:24:48.266Z,5.80
2019-03-15T02:27:17.914Z,5.90
2019-03-15T02:29:47.553Z,5.80
2019-03-15T02:32:17.331Z,5.90
2019-03-15T02:34:47.055Z,5.90
2019-03-15T02:37:16.816Z,5.90
2019-03-15T02:39:46.636Z,6.00
2019-03-15T02:42:16.448Z,6.00
2019-03-15T02:44:46.109Z,6.10
2019-03-15T02:47:15.915Z,6.30
2019-03-15T02:49:45.606Z,6.40
2019-03-15T02:52:16.391Z,6.30
2019-03-15T02:54:46.099Z,6.40
2019-03-15T02:57:15.839Z,6.40
2019-03-15T02:59:47.161Z,6.40
2019-03-15T03:02:17.238Z,6.40
2019-03-15T03:04:46.929Z,6.40
2019-03-15T03:07:16.904Z,6.50
2019-03-15T03:09:52.617Z,6.50
2019-03-15T03:12:22.735Z,6.50
2019-03-15T03:14:52.523Z,6.50
2019-03-15T03:17:22.293Z,6.60
2019-03-15T03:19:52.258Z,6.70
2019-03-15T03:22:22.142Z,6.70
2019-03-15T03:24:51.978Z,6.70
2019-03-15T03:27:22.033Z,6.80
2019-03-15T03:29:51.804Z,6.80
2019-03-15T03:32:21.638Z,6.90
2019-03-15T03:34:52.177Z,6.90
2019-03-15T03:37:22.559Z,7.00
2019-03-15T03:39:52.930Z,7.00
2019-03-15T03:42:22.750Z,7.00
2019-03-15T03:44:53.578Z,7.10
2019-03-15T03:47:23.393Z,7.20
2019-03-15T03:49:53.783Z,7.30
2019-03-15T03:52:24.631Z,7.30
2019-03-15T03:54:54.995Z,7.30
2019-03-15T03:57:25.078Z,7.40
2019-03-15T03:59:55.519Z,7.40
2019-03-15T04:02:25.710Z,7.40
2019-03-15T04:04:56.577Z,7.40
2019-03-15T04:07:27.310Z,7.40
2019-03-15T04:09:57.438Z,7.40
2019-03-15T04:12:27.458Z,7.40
2019-03-15T04:14:58.082Z,7.40
2019-03-15T04:17:27.930Z,7.30
2019-03-15T04:19:58.518Z,7.40
2019-03-15T04:22:47.734Z,7.40
2019-03-15T04:25:36.956Z,7.50
2019-03-15T04:28:07.558Z,7.40
2019-03-15T04:30:37.925Z,7.40
2019-03-15T04:33:08.250Z,7.50
2019-03-15T04:35:38.413Z,7.50
2019-03-15T04:38:08.354Z,7.60
2019-03-15T04:40:38.967Z,7.50
2019-03-15T04:43:08.702Z,7.40
2019-03-15T04:45:38.723Z,7.40
2019-03-15T04:48:09.161Z,7.30
2019-03-15T04:50:39.814Z,7.30
2019-03-15T04:53:10.229Z,7.40
2019-03-15T04:55:40.650Z,7.40
2019-03-15T04:58:11.170Z,7.40
2019-03-15T05:00:41.302Z,7.30
2019-03-15T05:03:11.718Z,7.40
2019-03-15T05:05:45.540Z,7.50
2019-03-15T05:08:22.109Z,7.60
2019-03-15T05:10:52.210Z,7.50
2019-03-15T05:13:22.738Z,7.50
2019-03-15T05:15:52.784Z,7.50
2019-03-15T05:18:22.878Z,7.50
2019-03-15T05:20:52.714Z,7.40
2019-03-15T05:23:22.525Z,7.50
2019-03-15T05:25:52.635Z,7.60
2019-03-15T05:28:22.483Z,7.50
2019-03-15T05:30:52.396Z,7.50
2019-03-15T05:33:22.417Z,7.50
2019-03-15T05:35:52.306Z,7.60
2019-03-15T05:38:22.238Z,7.60
2019-03-15T05:40:52.996Z,7.50
2019-03-15T05:43:22.754Z,7.50
2019-03-15T05:45:52.590Z,7.50
2019-03-15T05:48:22.690Z,7.50
2019-03-15T05:50:52.683Z,7.50
2019-03-15T05:53:22.473Z,7.50
2019-03-15T05:55:52.312Z,7.60
2019-03-15T05:58:22.394Z,7.50
2019-03-15T06:00:52.790Z,7.50
2019-03-15T06:03:48.842Z,7.50
2019-03-15T06:06:16.965Z,7.40
2019-03-15T06:09:00.713Z,7.40
2019-03-15T06:11:50.229Z,7.30
2019-03-15T06:14:21.042Z,7.30
2019-03-15T06:16:51.359Z,7.20
2019-03-15T06:19:21.733Z,7.20
2019-03-15T06:21:52.131Z,7.30
2019-03-15T06:24:22.824Z,7.40
2019-03-15T06:27:12.034Z,7.30
2019-03-15T06:29:41.736Z,7.30
2019-03-15T06:32:12.097Z,7.30
2019-03-15T06:34:42.476Z,7.30
2019-03-15T06:37:12.901Z,7.30
2019-03-15T06:39:43.725Z,7.20
2019-03-15T06:42:13.834Z,7.20
2019-03-15T06:44:56.986Z,7.20
2019-03-15T06:47:16.323Z,7.20
2019-03-15T06:49:47.309Z,7.20
2019-03-15T06:52:17.639Z,7.20
2019-03-15T06:54:47.997Z,7.10
2019-03-15T06:57:18.204Z,7.20
2019-03-15T06:59:48.547Z,7.30
2019-03-15T07:02:19.555Z,7.20
2019-03-15T07:04:49.814Z,7.30
2019-03-15T07:07:19.582Z,7.40
2019-03-15T07:09:49.856Z,7.40
2019-03-15T07:12:19.718Z,7.60
2019-03-15T07:14:49.810Z,7.60
2019-03-15T07:17:20.415Z,7.70
2019-03-15T07:19:50.162Z,7.80
2019-03-15T07:22:21.826Z,7.90
2019-03-15T07:24:54.882Z,8.00
2019-03-15T07:27:24.654Z,8.00
2019-03-15T07:29:54.802Z,8.20
2019-03-15T07:32:25.689Z,8.30
2019-03-15T07:34:56.068Z,8.40
2019-03-15T07:37:26.234Z,8.50
2019-03-15T07:39:56.788Z,8.60
2019-03-15T07:42:26.914Z,8.70
2019-03-15T07:44:57.225Z,8.80
2019-03-15T07:47:27.064Z,8.80
2019-03-15T07:49:56.757Z,8.80
2019-03-15T07:52:26.842Z,8.80
2019-03-15T07:54:57.203Z,8.90
2019-03-15T07:57:28.366Z,8.90
2019-03-15T07:59:58.644Z,8.90
2019-03-15T08:02:28.927Z,8.90
2019-03-15T08:05:00.273Z,8.90
2019-03-15T08:07:36.286Z,8.90
2019-03-15T08:10:02.954Z,9.00
2019-03-15T08:12:33.705Z,9.10
2019-03-15T08:15:03.857Z,9.10
2019-03-15T08:17:33.718Z,9.10
2019-03-15T08:20:03.542Z,9.20
2019-03-15T08:22:33.373Z,9.20
2019-03-15T08:25:03.199Z,9.20
2019-03-15T08:27:33.047Z,9.30
2019-03-15T08:30:21.987Z,9.30
2019-03-15T08:32:53.477Z,9.40
2019-03-15T08:35:24.714Z,9.40
2019-03-15T08:37:54.918Z,9.30
2019-03-15T08:40:25.920Z,9.40
2019-03-15T08:42:56.046Z,9.40
2019-03-15T08:45:25.886Z,9.40
2019-03-15T08:47:55.807Z,9.40
2019-03-15T08:50:25.614Z,9.40
2019-03-15T08:52:55.467Z,9.40
2019-03-15T08:55:25.331Z,9.40
2019-03-15T08:57:55.529Z,9.40
2019-03-15T09:00:28.371Z,9.30
2019-03-15T09:02:58.161Z,9.40
2019-03-15T09:05:28.073Z,9.40
2019-03-15T09:07:57.850Z,9.40
2019-03-15T09:10:28.247Z,9.40
2019-03-15T09:12:58.903Z,9.40
2019-03-15T09:15:30.849Z,9.50
2019-03-15T09:18:01.063Z,9.40
2019-03-15T09:20:30.910Z,9.50
2019-03-15T09:23:01.089Z,9.50
2019-03-15T09:25:31.198Z,9.50
2019-03-15T09:28:01.793Z,9.50
2019-03-15T09:30:35.051Z,9.50
2019-03-15T09:33:06.227Z,9.50
2019-03-15T09:35:37.184Z,9.50
2019-03-15T09:38:10.299Z,9.60
2019-03-15T09:40:41.214Z,9.60
2019-03-15T09:43:10.991Z,9.60
2019-03-15T09:45:41.340Z,9.70
2019-03-15T09:48:30.839Z,9.70
2019-03-15T09:51:01.202Z,9.70
2019-03-15T09:53:30.995Z,9.80
2019-03-15T09:56:01.444Z,9.70
2019-03-15T09:58:31.650Z,9.70
2019-03-15T10:01:02.590Z,9.80
2019-03-15T10:03:32.561Z,9.70
2019-03-15T10:06:14.421Z,9.80
2019-03-15T10:08:33.927Z,9.70
2019-03-15T10:11:04.704Z,9.70
2019-03-15T10:13:34.478Z,9.70
2019-03-15T10:16:04.437Z,9.70
2019-03-15T10:18:34.223Z,9.80
2019-03-15T10:21:04.333Z,9.80
2019-03-15T10:23:34.339Z,9.80
2019-03-15T10:26:04.437Z,9.80
2019-03-15T10:28:34.196Z,9.90
2019-03-15T10:31:04.406Z,9.80
2019-03-15T10:33:34.158Z,9.90
2019-03-15T10:36:04.486Z,9.90
2019-03-15T10:38:34.514Z,9.90
2019-03-15T10:41:04.518Z,9.90
2019-03-15T10:43:35.034Z,9.90
2019-03-15T10:46:06.279Z,10.00
2019-03-15T10:48:36.934Z,9.90
2019-03-15T10:51:07.068Z,10.00
2019-03-15T10:53:37.177Z,10.00
2019-03-15T10:56:07.290Z,10.00
2019-03-15T10:58:37.687Z,10.00
2019-03-15T11:01:08.156Z,10.00
2019-03-15T11:03:38.408Z,10.00
2019-03-15T11:06:08.418Z,10.00
2019-03-15T11:08:38.766Z,10.10
2019-03-15T11:11:08.654Z,10.10
2019-03-15T11:13:38.611Z,10.20
2019-03-15T11:16:09.026Z,10.30
2019-03-15T11:18:38.790Z,10.20
2019-03-15T11:21:08.983Z,10.20
2019-03-15T11:23:39.599Z,10.20
2019-03-15T11:26:13.789Z,10.20
2019-03-15T11:28:43.018Z,10.30
2019-03-15T11:31:13.542Z,10.30
2019-03-15T11:33:47.365Z,10.30
2019-03-15T11:36:18.077Z,10.30
2019-03-15T11:38:48.193Z,10.30
2019-03-15T11:41:18.824Z,10.30
2019-03-15T11:43:49.181Z,10.40
2019-03-15T11:46:22.127Z,10.30
2019-03-15T11:48:52.142Z,10.40
2019-03-15T11:51:22.022Z,10.40
2019-03-15T11:53:51.857Z,10.40
2019-03-15T11:56:26.987Z,10.40
2019-03-15T11:58:53.105Z,10.40
2019-03-15T12:01:22.983Z,10.40
2019-03-15T12:03:53.559Z,10.40
2019-03-15T12:06:23.573Z,10.40
2019-03-15T12:08:53.926Z,10.40
2019-03-15T12:11:23.798Z,10.40
2019-03-15T12:13:54.228Z,10.40
2019-03-15T12:16:25.020Z,10.30
2019-03-15T12:18:55.185Z,10.40
2019-03-15T12:21:25.689Z,10.40
2019-03-15T12:23:56.107Z,10.40
2019-03-15T12:26:39.490Z,10.50
2019-03-15T12:28:58.702Z,10.50
2019-03-15T12:31:29.436Z,10.50
2019-03-15T12:33:59.881Z,10.60
2019-03-15T12:36:31.893Z,10.70
2019-03-15T12:39:02.023Z,10.70
2019-03-15T12:41:32.058Z,10.70
2019-03-15T12:44:02.774Z,10.70
2019-03-15T12:46:33.638Z,10.80
2019-03-15T12:49:03.822Z,10.80
2019-03-15T12:51:34.187Z,10.80
2019-03-15T12:54:05.495Z,10.80
2019-03-15T12:56:54.917Z,10.80
2019-03-15T12:59:25.277Z,10.80
2019-03-15T13:01:56.246Z,10.80
2019-03-15T13:04:26.622Z,10.80
2019-03-15T13:06:56.597Z,10.90
2019-03-15T13:09:27.067Z,10.90
2019-03-15T13:11:57.552Z,10.90
2019-03-15T13:14:27.930Z,10.80
2019-03-15T13:16:58.030Z,10.90
2019-03-15T13:19:28.626Z,10.80
2019-03-15T13:21:59.229Z,10.80
2019-03-15T13:24:29.653Z,10.90
2019-03-15T13:27:07.321Z,10.90
2019-03-15T13:29:31.914Z,10.90
2019-03-15T13:32:02.024Z,10.90
2019-03-15T13:34:32.214Z,10.80
2019-03-15T13:37:02.717Z,10.80
2019-03-15T13:39:33.545Z,10.80
2019-03-15T13:42:03.594Z,10.70
2019-03-15T13:44:34.094Z,10.70
2019-03-15T13:47:04.471Z,10.60
2019-03-15T13:49:34.640Z,10.60
2019-03-15T13:52:04.759Z,10.50
2019-03-15T13:54:34.802Z,10.50
2019-03-15T13:57:04.923Z,10.50
2019-03-15T13:59:35.215Z,10.50
2019-03-15T14:02:07.519Z,10.40
2019-03-15T14:04:36.731Z,10.50
2019-03-15T14:07:06.683Z,10.50
2019-03-15T14:09:36.524Z,10.40
2019-03-15T14:12:06.387Z,10.30
2019-03-15T14:14:36.254Z,10.30
2019-03-15T14:17:06.095Z,10.20
2019-03-15T14:19:35.962Z,10.20
2019-03-15T14:22:06.426Z,10.20
2019-03-15T14:24:36.896Z,10.20
2019-03-15T14:27:07.040Z,10.20
2019-03-15T14:29:36.878Z,10.20
2019-03-15T14:32:07.069Z,10.30
2019-03-15T14:34:36.966Z,10.30
2019-03-15T14:37:10.065Z,10.30
2019-03-15T14:39:38.597Z,10.40
2019-03-15T14:42:08.634Z,10.50
2019-03-15T14:44:38.554Z,10.60
2019-03-15T14:47:27.553Z,10.60
2019-03-15T14:49:58.071Z,10.60
2019-03-15T14:52:28.709Z,10.60
2019-03-15T14:54:59.004Z,10.70
2019-03-15T14:57:29.114Z,10.70
2019-03-15T15:00:00.775Z,10.80
2019-03-15T15:02:31.859Z,10.80
2019-03-15T15:05:01.635Z,10.80
2019-03-15T15:07:31.346Z,10.90
2019-03-15T15:10:01.167Z,10.90
2019-03-15T15:12:30.963Z,10.90
2019-03-15T15:15:01.030Z,11.00
2019-03-15T15:17:31.042Z,11.10
2019-03-15T15:20:00.814Z,11.00
2019-03-15T15:22:30.811Z,11.00
2019-03-15T15:25:00.764Z,11.00
2019-03-15T15:27:31.047Z,10.90
2019-03-15T15:30:02.162Z,10.90
2019-03-15T15:32:32.404Z,10.90
2019-03-15T15:35:02.901Z,10.90
2019-03-15T15:37:33.501Z,11.00
2019-03-15T15:40:21.286Z,11.00
2019-03-15T15:42:51.158Z,11.00
2019-03-15T15:45:21.553Z,11.10
2019-03-15T15:47:53.399Z,11.10
2019-03-15T15:50:23.223Z,11.10
2019-03-15T15:52:53.159Z,11.00
2019-03-15T15:55:22.910Z,11.00
2019-03-15T15:57:52.806Z,11.00
2019-03-15T16:00:22.559Z,11.00
2019-03-15T16:02:52.503Z,10.90
2019-03-15T16:05:22.612Z,11.00
2019-03-15T16:07:52.530Z,10.90
2019-03-15T16:10:22.397Z,10.80
2019-03-15T16:13:17.244Z,10.80
2019-03-15T16:15:43.090Z,10.90
2019-03-15T16:18:13.199Z,10.90
2019-03-15T16:20:43.455Z,10.90
2019-03-15T16:23:13.597Z,10.90
2019-03-15T16:25:44.055Z,10.90
2019-03-15T16:28:14.289Z,10.90
2019-03-15T16:30:44.339Z,11.00
2019-03-15T16:33:14.727Z,11.10
2019-03-15T16:35:44.827Z,11.10
2019-03-15T16:38:14.968Z,11.10
2019-03-15T16:40:45.142Z,11.10
2019-03-15T16:43:15.797Z,11.10
2019-03-15T16:45:46.180Z,11.10
2019-03-15T16:48:16.530Z,11.10
2019-03-15T16:50:46.405Z,11.20
2019-03-15T16:53:16.469Z,11.10
2019-03-15T16:55:46.987Z,11.20
2019-03-15T16:58:17.367Z,11.10
2019-03-15T17:00:47.165Z,11.10
2019-03-15T17:03:17.026Z,11.10
2019-03-15T17:06:10.274Z,11.00
2019-03-15T17:08:40.378Z,11.10
2019-03-15T17:11:10.489Z,11.10
2019-03-15T17:14:00.206Z,11.10
2019-03-15T17:16:30.312Z,11.10
2019-03-15T17:19:00.042Z,11.20
2019-03-15T17:21:29.840Z,11.10
2019-03-15T17:24:00.068Z,11.10
2019-03-15T17:26:30.506Z,11.00
2019-03-15T17:29:00.617Z,11.00
2019-03-15T17:31:30.305Z,11.00
2019-03-15T17:34:00.170Z,11.00
2019-03-15T17:36:29.996Z,11.00
2019-03-15T17:39:00.539Z,11.10
2019-03-15T17:41:30.301Z,11.10
2019-03-15T17:44:00.994Z,11.20
2019-03-15T17:46:30.822Z,11.10
2019-03-15T17:49:00.797Z,11.10
2019-03-15T17:51:30.935Z,11.10
2019-03-15T17:54:01.327Z,11.10
2019-03-15T17:56:31.444Z,11.20
2019-03-15T17:59:11.923Z,11.10
2019-03-15T18:01:32.919Z,11.00
2019-03-15T18:04:02.900Z,11.00
2019-03-15T18:06:32.811Z,11.00
2019-03-15T18:09:04.105Z,11.00
2019-03-15T18:11:34.044Z,11.00
2019-03-15T18:14:04.131Z,11.00
2019-03-15T18:16:33.974Z,11.00
2019-03-15T18:19:04.370Z,10.90
2019-03-15T18:21:34.235Z,10.90
2019-03-15T18:24:04.434Z,10.90
2019-03-15T18:26:34.461Z,10.90
2019-03-15T18:29:04.535Z,10.90
2019-03-15T18:31:34.707Z,10.90
2019-03-15T18:34:04.779Z,10.90
2019-03-15T18:36:34.916Z,10.90
2019-03-15T18:39:07.492Z,10.90
2019-03-15T18:41:37.598Z,10.80
2019-03-15T18:44:07.463Z,10.80
2019-03-15T18:46:37.237Z,10.80
2019-03-15T18:49:07.173Z,10.80
2019-03-15T18:51:37.035Z,10.80
2019-03-15T18:54:16.972Z,10.80
2019-03-15T18:56:38.434Z,10.80
2019-03-15T18:59:08.891Z,10.80
2019-03-15T19:01:39.349Z,10.80
2019-03-15T19:04:09.493Z,10.80
2019-03-15T19:06:39.800Z,10.80
2019-03-15T19:09:10.194Z,10.80
2019-03-15T19:11:40.463Z,10.80
2019-03-15T19:14:10.444Z,10.80
2019-03-15T19:16:42.148Z,10.80
2019-03-15T19:19:12.523Z,10.80
2019-03-15T19:21:42.295Z,10.80
2019-03-15T19:24:12.438Z,10.80
2019-03-15T19:26:42.693Z,10.80
2019-03-15T19:29:13.325Z,10.90
2019-03-15T19:31:44.420Z,10.80
2019-03-15T19:34:14.870Z,10.90
2019-03-15T19:36:45.410Z,10.80
2019-03-15T19:39:15.517Z,10.80
2019-03-15T19:41:45.651Z,10.90
2019-03-15T19:44:15.826Z,10.90
2019-03-15T19:46:45.917Z,10.90
2019-03-15T19:49:16.401Z,10.80
2019-03-15T19:51:46.523Z,10.80
2019-03-15T19:54:16.548Z,10.80
2019-03-15T19:56:46.784Z,10.80
2019-03-15T19:59:17.194Z,10.80
2019-03-15T20:01:48.182Z,10.70
2019-03-15T20:04:18.418Z,10.70
2019-03-15T20:06:49.943Z,10.60
2019-03-15T20:09:20.509Z,10.80
2019-03-15T20:11:50.508Z,10.80
2019-03-15T20:14:20.528Z,10.80
2019-03-15T20:16:50.611Z,10.90
2019-03-15T20:19:20.598Z,10.80
2019-03-15T20:21:50.616Z,10.80
2019-03-15T20:24:21.131Z,10.70
2019-03-15T20:26:51.277Z,10.70
2019-03-15T20:29:21.701Z,10.40
2019-03-15T20:31:51.471Z,10.20
2019-03-15T20:34:21.503Z,10.20
2019-03-15T20:36:51.193Z,10.10
2019-03-15T20:39:21.582Z,10.20
2019-03-15T20:41:51.641Z,10.10
2019-03-15T20:44:28.416Z,10.10
2019-03-15T20:46:52.946Z,10.20
2019-03-15T20:49:22.698Z,10.20
2019-03-15T20:51:52.460Z,10.20
2019-03-15T20:54:22.213Z,10.20
2019-03-15T20:56:52.057Z,10.20
2019-03-15T20:59:23.088Z,10.30
2019-03-15T21:01:53.495Z,10.30
2019-03-15T21:04:23.536Z,10.30
2019-03-15T21:06:53.442Z,10.30
2019-03-15T21:09:23.117Z,10.30
2019-03-15T21:11:52.971Z,10.40
2019-03-15T21:14:22.807Z,10.40
2019-03-15T21:16:53.023Z,10.40
2019-03-15T21:19:22.769Z,10.30
2019-03-15T21:21:52.728Z,10.30
2019-03-15T21:24:24.018Z,10.30
2019-03-15T21:26:54.008Z,10.30
2019-03-15T21:29:23.762Z,10.30
2019-03-15T21:31:53.659Z,10.30
2019-03-15T21:34:23.515Z,10.40
2019-03-15T21:36:53.285Z,10.40
2019-03-15T21:39:22.970Z,10.30
2019-03-15T21:41:52.812Z,10.40
2019-03-15T21:44:22.709Z,10.40
2019-03-15T21:46:52.562Z,10.50
2019-03-15T21:49:22.399Z,10.40
2019-03-15T21:51:52.158Z,10.40
2019-03-15T21:54:23.855Z,10.40
2019-03-15T21:56:53.739Z,10.40
2019-03-15T21:59:23.644Z,10.40
2019-03-15T22:01:53.766Z,10.40
2019-03-15T22:04:42.719Z,10.40
2019-03-15T22:07:12.494Z,10.40
2019-03-15T22:09:42.242Z,10.50
2019-03-15T22:12:12.090Z,10.60
2019-03-15T22:14:41.885Z,10.50
2019-03-15T22:17:11.734Z,10.50
2019-03-15T22:19:41.849Z,10.50
2019-03-15T22:22:11.687Z,10.50
2019-03-15T22:24:41.389Z,10.50
2019-03-15T22:27:11.242Z,10.60
2019-03-15T22:29:52.962Z,10.50
2019-03-15T22:32:12.563Z,10.50
2019-03-15T22:34:42.361Z,10.50
2019-03-15T22:37:12.462Z,10.50
2019-03-15T22:39:42.227Z,10.50
2019-03-15T22:42:12.111Z,10.40
2019-03-15T22:44:41.871Z,10.40
2019-03-15T22:47:11.654Z,10.40
2019-03-15T22:49:41.495Z,10.40
2019-03-15T22:52:11.259Z,10.40
2019-03-15T22:54:41.081Z,10.40
2019-03-15T22:57:10.850Z,10.40
2019-03-15T22:59:40.666Z,10.40
2019-03-15T23:02:10.808Z,10.40
2019-03-15T23:04:40.909Z,10.30
2019-03-15T23:07:10.774Z,10.40
2019-03-15T23:09:40.542Z,10.30
2019-03-15T23:12:10.714Z,10.30
2019-03-15T23:14:40.562Z,10.20
2019-03-15T23:17:10.748Z,10.20
2019-03-15T23:19:40.538Z,10.10
2019-03-15T23:22:10.297Z,10.00
2019-03-15T23:24:40.062Z,10.00
2019-03-15T23:27:09.798Z,9.90
2019-03-15T23:29:39.557Z,9.90
2019-03-15T23:32:10.522Z,10.00
2019-03-15T23:34:40.304Z,9.90
2019-03-15T23:37:10.150Z,9.80
2019-03-15T23:39:40.180Z,9.80
2019-03-15T23:42:10.304Z,9.80
2019-03-15T23:44:41.030Z,9.80
2019-03-15T23:47:11.466Z,9.80
2019-03-15T23:49:42.623Z,9.90
2019-03-15T23:52:13.078Z,9.80
2019-03-15T23:54:44.100Z,9.80
2019-03-15T23:57:14.695Z,9.90
2019-03-15T23:59:44.521Z,9.90
